Time;durP1;ratioP1;P1;durP2;ratioP2;P2;SDS_P1;SDS_P2;PMS_P1;PMS_P2;Temp;Humidity;BMP_temperature;BMP_pressure;BME280_temperature;BME280_humidity;BME280_pressure;Samples;Min_cycle;Max_cycle;Signal;HPM_P1;HPM_P2
2023/05/21 00:01:14;;;;;;;2.90;2.58;;;20.60;57.40;;;;;;8268961;28;20051;-80
2023/05/21 00:05:17;;;;;;;2.88;2.60;;;20.60;57.30;;;;;;8269011;28;20057;-81
2023/05/21 00:09:17;;;;;;;3.03;2.80;;;20.60;57.30;;;;;;8252494;28;20041;-81
2023/05/21 00:13:18;;;;;;;4.18;2.15;;;20.60;57.40;;;;;;8252630;28;20164;-80
2023/05/21 00:17:19;;;;;;;2.72;2.33;;;20.60;57.30;;;;;;8268617;28;20511;-80
2023/05/21 00:21:24;;;;;;;3.42;1.95;;;20.60;57.60;;;;;;8268360;28;20405;-81
2023/05/21 00:25:25;;;;;;;2.63;2.40;;;20.60;57.10;;;;;;8268584;28;20370;-80
2023/05/21 00:29:26;;;;;;;3.75;2.40;;;20.60;57.10;;;;;;8252135;28;20117;-81
2023/05/21 00:33:27;;;;;;;2.70;2.00;;;20.60;57.20;;;;;;8235939;28;20038;-81
2023/05/21 00:37:31;;;;;;;;;;;20.60;57.60;;;;;;8230811;28;20062;-81
2023/05/21 00:41:34;;;;;;;3.50;2.60;;;20.60;57.20;;;;;;8235686;28;19964;-80
2023/05/21 00:45:36;;;;;;;3.78;2.40;;;20.60;57.60;;;;;;8219331;28;20469;-80
2023/05/21 00:49:36;;;;;;;3.22;2.42;;;20.60;57.20;;;;;;8235592;28;20030;-80
2023/05/21 00:53:38;;;;;;;4.45;2.15;;;20.60;57.30;;;;;;8235950;28;20039;-80
2023/05/21 00:57:39;;;;;;;2.35;2.15;;;20.60;57.20;;;;;;8235421;28;20038;-80
2023/05/21 01:01:42;;;;;;;2.70;2.22;;;20.60;57.20;;;;;;8235432;28;20031;-80
2023/05/21 01:05:43;;;;;;;3.97;2.22;;;20.60;57.30;;;;;;8236959;28;20142;-80
2023/05/21 01:09:44;;;;;;;2.63;2.28;;;20.60;57.10;;;;;;8220337;28;20023;-80
2023/05/21 01:13:46;;;;;;;4.00;2.40;;;20.60;57.50;;;;;;8228536;28;20019;-81
2023/05/21 01:17:48;;;;;;;2.75;2.30;;;20.60;57.50;;;;;;8278040;28;20026;-81
2023/05/21 01:21:52;;;;;;;3.40;2.33;;;20.60;57.60;;;;;;8278748;28;20026;-80
2023/05/21 01:25:53;;;;;;;3.78;2.20;;;20.60;57.30;;;;;;8277733;28;20027;-81
2023/05/21 01:29:54;;;;;;;4.38;2.10;;;20.70;57.20;;;;;;8261331;28;20094;-81
2023/05/21 01:33:59;;;;;;;4.35;1.95;;;20.60;57.20;;;;;;8277064;28;20030;-81
2023/05/21 01:38:07;;;;;;;2.40;2.17;;;20.60;56.80;;;;;;8275992;28;20288;-80
2023/05/21 01:42:09;;;;;;;3.72;2.50;;;20.60;57.10;;;;;;8253068;28;20374;-81
2023/05/21 01:46:14;;;;;;;4.68;2.00;;;20.50;56.80;;;;;;8234247;28;20030;-81
2023/05/21 01:50:17;;;;;;;5.03;2.20;;;20.50;56.70;;;;;;8231024;28;20400;-82
2023/05/21 01:54:18;;;;;;;5.15;2.90;;;20.50;56.80;;;;;;8231913;28;20062;-82
2023/05/21 01:58:20;;;;;;;4.72;2.55;;;20.60;56.70;;;;;;8229369;28;20039;-82
2023/05/21 02:02:20;;;;;;;3.28;2.83;;;20.60;56.70;;;;;;8230810;28;20015;-81
2023/05/21 02:06:21;;;;;;;4.07;2.78;;;20.70;56.80;;;;;;8231710;28;20035;-81
2023/05/21 02:10:22;;;;;;;6.00;2.80;;;20.90;56.30;;;;;;8215248;28;20684;-82
2023/05/21 02:14:24;;;;;;;8.02;2.88;;;20.90;56.20;;;;;;8230025;28;20042;-82
2023/05/21 02:18:25;;;;;;;4.75;2.78;;;20.90;56.10;;;;;;8232196;28;20041;-82
2023/05/21 02:22:25;;;;;;;2.80;2.60;;;20.80;56.10;;;;;;8214789;28;20030;-82
2023/05/21 02:26:27;;;;;;;2.60;2.17;;;20.80;56.20;;;;;;8215042;28;20248;-81
2023/05/21 02:30:27;;;;;;;;;;;20.80;56.30;;;;;;8231305;28;20045;-82
2023/05/21 02:34:31;;;;;;;5.63;2.70;;;20.70;56.40;;;;;;8246991;28;19910;-82
2023/05/21 02:38:31;;;;;;;11.07;2.70;;;20.60;56.60;;;;;;8214774;28;20051;-81
2023/05/21 02:42:32;;;;;;;3.13;2.83;;;20.70;56.90;;;;;;8230785;28;20030;-81
2023/05/21 02:46:33;;;;;;;6.63;2.45;;;20.60;57.30;;;;;;8214501;28;20365;-81
2023/05/21 02:50:34;;;;;;;5.65;2.80;;;20.60;57.60;;;;;;8230179;28;20121;-82
2023/05/21 02:54:34;;;;;;;5.80;2.90;;;20.60;57.60;;;;;;8198828;28;20089;-81
2023/05/21 02:58:35;;;;;;;5.25;2.55;;;20.60;57.30;;;;;;8214184;28;20035;-81
2023/05/21 03:02:36;;;;;;;6.75;2.70;;;20.60;57.00;;;;;;8182111;29;20031;-80
2023/05/21 03:06:36;;;;;;;4.00;2.35;;;20.50;57.00;;;;;;8197384;29;20502;-80
2023/05/21 03:10:37;;;;;;;6.13;3.00;;;20.50;57.00;;;;;;8165396;29;20035;-80
2023/05/21 03:14:38;;;;;;;3.20;2.30;;;20.40;57.00;;;;;;8212911;28;20405;-80
2023/05/21 03:18:39;;;;;;;6.95;2.60;;;20.40;57.10;;;;;;8181132;29;20043;-80
2023/05/21 03:22:41;;;;;;;4.00;2.50;;;20.30;57.10;;;;;;8188527;28;20031;-80
2023/05/21 03:26:42;;;;;;;5.20;2.35;;;20.40;57.20;;;;;;8196841;28;20027;-80
2023/05/21 03:30:48;;;;;;;4.80;2.47;;;20.30;57.10;;;;;;8228674;28;20043;-80
2023/05/21 03:34:48;;;;;;;6.32;2.63;;;20.30;57.20;;;;;;8197241;28;20286;-80
2023/05/21 03:38:49;;;;;;;9.90;3.73;;;20.20;57.20;;;;;;8228344;28;20093;-81
2023/05/21 03:42:50;;;;;;;4.50;2.40;;;20.20;57.20;;;;;;8228818;28;20283;-81
2023/05/21 03:46:51;;;;;;;3.20;2.72;;;20.20;57.30;;;;;;8228046;28;20031;-80
2023/05/21 03:50:51;;;;;;;5.43;2.80;;;20.20;57.80;;;;;;8228278;28;20035;-81
2023/05/21 03:54:52;;;;;;;2.65;2.08;;;20.20;57.30;;;;;;8230068;28;20118;-80
2023/05/21 03:58:52;;;;;;;3.85;2.60;;;20.20;57.30;;;;;;8211740;28;20035;-80
2023/05/21 04:02:53;;;;;;;3.63;2.85;;;20.20;57.40;;;;;;8196160;28;20493;-80
2023/05/21 04:06:54;;;;;;;3.67;2.40;;;20.10;57.30;;;;;;8211842;28;20031;-80
2023/05/21 04:10:55;;;;;;;3.90;2.53;;;20.10;57.40;;;;;;8227725;28;20031;-80
2023/05/21 04:14:56;;;;;;;6.30;2.42;;;20.20;57.50;;;;;;8229254;28;20031;-81
2023/05/21 04:18:57;;;;;;;2.80;2.30;;;20.20;57.40;;;;;;8211662;28;20039;-80
2023/05/21 04:22:57;;;;;;;7.55;2.60;;;20.20;57.20;;;;;;8211889;28;20471;-81
2023/05/21 04:27:00;;;;;;;4.03;2.63;;;20.20;57.10;;;;;;8211772;28;20031;-81
2023/05/21 04:31:00;;;;;;;3.35;2.50;;;20.30;57.10;;;;;;8195686;28;20034;-80
2023/05/21 04:35:01;;;;;;;3.47;2.42;;;20.20;56.90;;;;;;8195507;28;20042;-81
2023/05/21 04:39:04;;;;;;;3.40;2.63;;;20.30;57.00;;;;;;8230570;28;20493;-80
2023/05/21 04:43:05;;;;;;;3.03;2.42;;;20.30;57.00;;;;;;8233345;28;20041;-81
2023/05/21 04:47:06;;;;;;;3.50;2.58;;;20.20;56.90;;;;;;8233533;28;20023;-81
2023/05/21 04:51:07;;;;;;;3.80;2.53;;;20.20;57.00;;;;;;8217369;28;20034;-81
2023/05/21 04:55:08;;;;;;;3.05;2.60;;;20.20;57.00;;;;;;8233301;28;20478;-80
2023/05/21 04:59:09;;;;;;;5.05;2.97;;;20.20;57.00;;;;;;8200977;28;20440;-81
2023/05/21 05:03:10;;;;;;;5.40;2.80;;;20.20;57.00;;;;;;8200963;28;20031;-80
2023/05/21 05:07:11;;;;;;;3.90;2.20;;;20.20;57.00;;;;;;8232821;28;20158;-81
2023/05/21 05:11:12;;;;;;;4.55;2.50;;;20.20;57.00;;;;;;8232691;28;20038;-81
2023/05/21 05:15:12;;;;;;;5.63;2.47;;;20.20;57.00;;;;;;8216660;28;20030;-81
2023/05/21 05:19:13;;;;;;;4.53;2.67;;;20.20;57.00;;;;;;8216372;28;20041;-81
2023/05/21 05:23:14;;;;;;;3.85;2.35;;;20.20;57.00;;;;;;8216308;28;20485;-81
2023/05/21 05:27:15;;;;;;;3.28;2.20;;;20.20;57.00;;;;;;8216050;28;20145;-81
2023/05/21 05:31:15;;;;;;;4.63;1.98;;;20.20;57.10;;;;;;8215807;28;20039;-80
2023/05/21 05:35:16;;;;;;;3.80;2.60;;;20.20;57.10;;;;;;8231983;28;20053;-80
2023/05/21 05:39:17;;;;;;;2.25;2.05;;;20.20;57.00;;;;;;8231628;28;20134;-80
2023/05/21 05:43:17;;;;;;;3.58;2.35;;;20.10;57.10;;;;;;8215885;28;20046;-80
2023/05/21 05:47:18;;;;;;;3.92;2.58;;;20.10;57.10;;;;;;8231843;28;20034;-81
2023/05/21 05:51:19;;;;;;;5.20;2.63;;;20.20;57.10;;;;;;8231315;28;20073;-81
2023/05/21 05:55:20;;;;;;;2.35;2.08;;;20.20;57.10;;;;;;8183900;29;20054;-81
2023/05/21 05:59:21;;;;;;;3.40;2.40;;;20.20;57.00;;;;;;8199379;29;20122;-81
2023/05/21 06:03:22;;;;;;;2.38;2.13;;;20.20;56.90;;;;;;8199111;29;20031;-81
2023/05/21 06:07:22;;;;;;;3.63;2.25;;;20.20;56.80;;;;;;8199111;29;20027;-80
2023/05/21 06:11:23;;;;;;;4.10;2.25;;;20.30;56.80;;;;;;8183327;29;20039;-80
2023/05/21 06:15:24;;;;;;;2.95;2.20;;;20.30;56.80;;;;;;8166714;29;20413;-80
2023/05/21 06:19:24;;;;;;;3.47;2.20;;;20.20;56.70;;;;;;8182501;29;20110;-81
2023/05/21 06:23:25;;;;;;;2.80;2.40;;;20.20;56.70;;;;;;8214459;28;20287;-80
2023/05/21 06:27:26;;;;;;;2.83;2.42;;;20.30;56.80;;;;;;8198184;28;20088;-81
2023/05/21 06:31:26;;;;;;;2.60;2.22;;;20.20;56.70;;;;;;8214536;28;20034;-81
2023/05/21 06:35:27;;;;;;;3.75;2.20;;;20.20;56.70;;;;;;8230467;28;20047;-81
2023/05/21 06:39:28;;;;;;;2.85;2.13;;;20.20;56.80;;;;;;8213860;28;20043;-81
2023/05/21 06:43:28;;;;;;;2.42;2.08;;;20.20;56.80;;;;;;8198176;28;20117;-80
2023/05/21 06:47:29;;;;;;;2.33;1.95;;;20.20;57.30;;;;;;8214464;28;20031;-81
2023/05/21 06:51:30;;;;;;;2.20;2.00;;;20.20;56.80;;;;;;8229725;28;20070;-81
2023/05/21 06:55:30;;;;;;;3.00;1.85;;;20.10;56.80;;;;;;8229915;28;20405;-81
2023/05/21 06:59:31;;;;;;;2.25;1.83;;;20.20;56.90;;;;;;8197031;28;20035;-81
2023/05/21 07:03:32;;;;;;;3.17;2.20;;;20.20;56.90;;;;;;8244912;28;20374;-81
2023/05/21 07:07:33;;;;;;;2.22;2.03;;;20.20;56.90;;;;;;8213447;28;20034;-80
2023/05/21 07:11:34;;;;;;;2.63;2.10;;;20.20;56.90;;;;;;8229491;28;20089;-81
2023/05/21 07:15:35;;;;;;;2.88;2.10;;;20.20;56.90;;;;;;8213027;28;20085;-80
2023/05/21 07:19:37;;;;;;;3.50;2.40;;;20.10;56.80;;;;;;8196831;28;20035;-80
2023/05/21 07:23:37;;;;;;;3.13;2.28;;;20.10;56.90;;;;;;8230342;28;20031;-80
2023/05/21 07:27:38;;;;;;;4.47;2.20;;;20.10;56.90;;;;;;8212544;28;20089;-81
2023/05/21 07:31:38;;;;;;;3.00;2.28;;;20.10;56.90;;;;;;8229033;28;20034;-81
2023/05/21 07:35:39;;;;;;;2.42;1.95;;;20.10;57.00;;;;;;8229933;28;20054;-81
2023/05/21 07:39:40;;;;;;;3.25;2.17;;;20.10;56.90;;;;;;8196765;28;20335;-80
2023/05/21 07:43:41;;;;;;;3.58;2.17;;;20.10;56.90;;;;;;8228769;28;20038;-81
2023/05/21 07:47:43;;;;;;;2.45;2.13;;;20.20;56.80;;;;;;8229042;28;20054;-80
2023/05/21 07:51:44;;;;;;;3.75;2.30;;;20.20;56.70;;;;;;8229603;28;20489;-81
2023/05/21 07:55:48;;;;;;;2.25;1.92;;;20.20;56.70;;;;;;8212024;28;20397;-81
2023/05/21 07:59:49;;;;;;;2.95;2.25;;;20.20;56.60;;;;;;8211907;28;20039;-81
2023/05/21 08:03:51;;;;;;;;;;;20.20;56.60;;;;;;8230225;28;20388;-81
2023/05/21 08:07:51;;;;;;;2.47;2.20;;;20.20;56.50;;;;;;8212913;28;20126;-81
2023/05/21 08:11:52;;;;;;;2.42;2.00;;;20.20;56.60;;;;;;8228976;28;20649;-81
2023/05/21 08:15:53;;;;;;;2.80;2.20;;;20.20;56.60;;;;;;8218309;28;20034;-81
2023/05/21 08:19:53;;;;;;;3.05;2.40;;;20.20;56.60;;;;;;8218824;28;20039;-80
2023/05/21 08:23:54;;;;;;;2.83;2.20;;;20.20;56.60;;;;;;8202684;29;20089;-81
2023/05/21 08:27:55;;;;;;;2.15;1.90;;;20.20;56.60;;;;;;8203730;29;20062;-80
2023/05/21 08:31:56;;;;;;;2.70;2.20;;;20.20;56.60;;;;;;8201737;29;20090;-81
2023/05/21 08:35:56;;;;;;;2.45;1.90;;;20.20;56.60;;;;;;8185868;28;20051;-81
2023/05/21 08:39:57;;;;;;;2.75;2.00;;;20.20;56.60;;;;;;8201864;29;20515;-80
2023/05/21 08:44:01;;;;;;;2.05;1.67;;;20.20;56.60;;;;;;8201307;29;20043;-80
2023/05/21 08:48:02;;;;;;;2.92;1.90;;;20.20;56.70;;;;;;8217631;28;20027;-80
2023/05/21 08:52:04;;;;;;;3.25;1.77;;;20.20;56.70;;;;;;8204466;28;20035;-80
2023/05/21 08:56:06;;;;;;;2.53;2.10;;;20.20;56.70;;;;;;8201285;28;20109;-80
2023/05/21 09:00:07;;;;;;;2.92;2.15;;;20.20;56.60;;;;;;8216618;28;20019;-81
2023/05/21 09:04:09;;;;;;;2.53;1.95;;;20.20;56.70;;;;;;8232858;28;20043;-81
2023/05/21 09:08:34;;;;;;;2.60;2.00;;;20.20;56.70;;;;;;8234236;28;20049;-80
2023/05/21 09:12:35;;;;;;;2.60;1.90;;;20.10;56.60;;;;;;8236061;28;20106;-81
2023/05/21 09:16:36;;;;;;;2.30;2.00;;;20.20;56.70;;;;;;8218787;28;20042;-81
2023/05/21 09:20:37;;;;;;;3.80;2.00;;;20.10;56.60;;;;;;8230940;28;20044;-81
2023/05/21 09:24:37;;;;;;;2.40;2.17;;;20.10;56.70;;;;;;8275821;28;20069;-81
2023/05/21 09:28:38;;;;;;;2.80;2.08;;;20.10;56.70;;;;;;8276427;28;20061;-81
2023/05/21 09:32:40;;;;;;;1.97;1.70;;;20.10;56.70;;;;;;8275570;28;20031;-81
2023/05/21 09:36:40;;;;;;;2.40;2.20;;;20.10;56.70;;;;;;8276176;28;20302;-80
2023/05/21 09:40:45;;;;;;;2.45;2.00;;;20.10;56.70;;;;;;8275547;28;20123;-80
2023/05/21 09:44:46;;;;;;;2.15;1.95;;;20.10;56.70;;;;;;8242683;28;20022;-80
2023/05/21 09:48:47;;;;;;;2.40;1.92;;;20.10;56.70;;;;;;8246800;28;20558;-80
2023/05/21 09:52:51;;;;;;;2.33;2.13;;;20.10;56.70;;;;;;8216167;28;20460;-81
2023/05/21 09:56:52;;;;;;;2.78;1.80;;;20.10;56.70;;;;;;8216049;28;20026;-80
2023/05/21 10:00:53;;;;;;;3.17;2.28;;;20.10;56.70;;;;;;8183344;28;20035;-81
2023/05/21 10:04:55;;;;;;;2.17;1.88;;;20.10;56.70;;;;;;8231469;28;20027;-80
2023/05/21 10:09:00;;;;;;;2.63;1.90;;;20.10;56.70;;;;;;8214757;28;20039;-80
2023/05/21 10:13:06;;;;;;;2.17;1.75;;;20.10;56.80;;;;;;8230752;28;20058;-81
2023/05/21 10:17:08;;;;;;;2.58;1.90;;;20.10;56.70;;;;;;8232090;28;20038;-81
2023/05/21 10:21:09;;;;;;;2.13;1.70;;;20.10;56.80;;;;;;8214651;28;20039;-81
2023/05/21 10:25:12;;;;;;;2.15;1.88;;;20.10;56.70;;;;;;8214325;28;20084;-81
2023/05/21 10:29:14;;;;;;;2.60;2.00;;;20.10;56.70;;;;;;8230484;28;20431;-80
2023/05/21 10:33:15;;;;;;;2.65;2.10;;;20.10;56.80;;;;;;8214056;28;20041;-80
2023/05/21 10:37:16;;;;;;;;;;;20.10;56.80;;;;;;8229737;28;20043;-80
2023/05/21 10:41:20;;;;;;;2.37;2.00;;;20.10;56.80;;;;;;8229929;28;19928;-80
2023/05/21 10:45:49;;;;;;;2.45;1.75;;;20.10;56.80;;;;;;8229959;28;20389;-80
2023/05/21 10:50:13;;;;;;;2.97;1.90;;;20.10;56.80;;;;;;8231844;28;20062;-80
2023/05/21 10:54:30;;;;;;;2.33;2.00;;;20.10;56.80;;;;;;8221053;28;20520;-80
2023/05/21 10:59:01;;;;;;;2.30;2.10;;;20.10;56.90;;;;;;8212978;28;20556;-81
2023/05/21 11:03:04;;;;;;;1.90;1.77;;;20.10;56.90;;;;;;8230689;28;20019;-81
2023/05/21 11:07:05;;;;;;;2.83;2.05;;;20.00;56.90;;;;;;8197011;28;20035;-80
2023/05/21 11:11:06;;;;;;;2.90;2.10;;;20.00;56.80;;;;;;8230546;28;20038;-80
2023/05/21 11:15:07;;;;;;;2.17;1.67;;;20.00;56.80;;;;;;8197146;28;20579;-80
2023/05/21 11:19:16;;;;;;;2.08;1.88;;;20.10;56.90;;;;;;8213015;28;20046;-80
2023/05/21 11:23:19;;;;;;;2.33;2.10;;;20.00;56.80;;;;;;8229266;28;20023;-81
2023/05/21 11:27:37;;;;;;;2.40;1.90;;;20.00;56.80;;;;;;8228928;28;20042;-80
2023/05/21 11:31:38;;;;;;;2.35;1.80;;;20.00;56.80;;;;;;8228672;28;20035;-81
2023/05/21 11:35:45;;;;;;;2.20;1.92;;;20.00;56.80;;;;;;8228593;28;20047;-80
2023/05/21 11:39:46;;;;;;;3.20;2.00;;;20.00;56.80;;;;;;8228378;28;20539;-81
2023/05/21 11:43:59;;;;;;;2.13;1.92;;;20.00;56.80;;;;;;8228512;28;20023;-81
2023/05/21 11:48:00;;;;;;;2.72;1.83;;;20.00;56.80;;;;;;8228283;28;20507;-80
2023/05/21 11:52:02;;;;;;;1.92;1.83;;;20.00;56.90;;;;;;8244730;28;20035;-80
2023/05/21 11:56:04;;;;;;;3.42;2.00;;;20.00;56.80;;;;;;8229594;28;20037;-80
2023/05/21 12:00:12;;;;;;;2.60;1.98;;;20.00;57.30;;;;;;8212181;28;20031;-81
2023/05/21 12:04:13;;;;;;;2.10;1.90;;;20.00;56.90;;;;;;8228228;28;20031;-80
2023/05/21 12:08:24;;;;;;;2.20;1.80;;;20.00;56.90;;;;;;8212071;28;20030;-81
2023/05/21 12:12:26;;;;;;;2.75;2.33;;;20.00;56.90;;;;;;8229652;28;20361;-80
2023/05/21 12:16:26;;;;;;;2.65;1.98;;;20.00;56.80;;;;;;8228140;28;20389;-80
2023/05/21 12:20:27;;;;;;;2.45;2.00;;;20.00;56.90;;;;;;8227802;28;20039;-81
2023/05/21 12:24:29;;;;;;;3.40;1.95;;;20.00;56.90;;;;;;8229541;28;20031;-80
2023/05/21 12:28:30;;;;;;;2.17;1.98;;;20.00;56.90;;;;;;8227755;28;20114;-81
2023/05/21 12:32:31;;;;;;;2.53;1.90;;;20.00;56.90;;;;;;8227875;28;20039;-81
2023/05/21 12:36:32;;;;;;;2.00;1.80;;;20.00;56.90;;;;;;8227515;28;20113;-81
2023/05/21 12:40:37;;;;;;;2.72;1.92;;;20.00;56.90;;;;;;8227628;28;20360;-81
2023/05/21 12:44:39;;;;;;;2.35;1.73;;;20.00;56.90;;;;;;8227614;28;20062;-80
2023/05/21 12:48:46;;;;;;;2.40;1.90;;;20.00;56.90;;;;;;8227538;28;20385;-81
2023/05/21 12:52:47;;;;;;;3.05;2.20;;;20.00;56.90;;;;;;8227535;28;20031;-80
2023/05/21 12:56:48;;;;;;;2.60;2.08;;;20.00;56.90;;;;;;8228537;28;20117;-81
2023/05/21 13:00:49;;;;;;;2.00;1.80;;;20.00;56.90;;;;;;8231228;28;20457;-82
2023/05/21 13:04:55;;;;;;;6.13;4.20;;;20.00;56.90;;;;;;8234092;28;20031;-83
2023/05/21 13:08:56;;;;;;;8.18;5.25;;;20.10;56.90;;;;;;8216675;28;20399;-83
2023/05/21 13:12:56;;;;;;;10.43;5.63;;;20.30;56.50;;;;;;8231620;28;20078;-82
2023/05/21 13:16:57;;;;;;;10.52;6.97;;;20.30;57.50;;;;;;8216362;28;20286;-81
2023/05/21 13:20:58;;;;;;;11.65;7.72;;;20.40;56.50;;;;;;8216595;28;20062;-81
2023/05/21 13:24:59;;;;;;;11.68;7.82;;;20.50;56.30;;;;;;8233935;28;20085;-81
2023/05/21 13:28:59;;;;;;;13.93;9.00;;;20.60;56.40;;;;;;8232361;28;20464;-81
2023/05/21 13:33:00;;;;;;;13.68;8.68;;;20.60;56.00;;;;;;8216101;28;20062;-80
2023/05/21 13:37:01;;;;;;;13.25;9.00;;;20.70;55.70;;;;;;8215901;28;20101;-81
2023/05/21 13:41:01;;;;;;;17.58;8.32;;;20.70;55.60;;;;;;8231650;28;20429;-81
2023/05/21 13:45:02;;;;;;;12.70;7.90;;;20.80;55.30;;;;;;8200128;28;20041;-80
2023/05/21 13:49:03;;;;;;;11.25;7.78;;;20.70;55.50;;;;;;8231543;28;20031;-81
2023/05/21 13:53:03;;;;;;;11.88;8.52;;;20.60;55.60;;;;;;8231636;28;20407;-81
2023/05/21 13:57:04;;;;;;;10.88;7.43;;;20.60;55.80;;;;;;8232710;28;20078;-81
2023/05/21 14:01:06;;;;;;;10.60;7.32;;;20.50;56.00;;;;;;8230987;28;20417;-81
2023/05/21 14:05:07;;;;;;;11.35;7.70;;;20.40;56.10;;;;;;8232497;28;20034;-80
2023/05/21 14:09:08;;;;;;;10.18;6.88;;;20.40;56.30;;;;;;8215095;28;20433;-81
2023/05/21 14:13:08;;;;;;;9.60;7.05;;;20.30;56.40;;;;;;8214629;28;20163;-81
2023/05/21 14:17:09;;;;;;;9.95;6.30;;;20.30;56.40;;;;;;8231038;28;20121;-81
2023/05/21 14:21:10;;;;;;;9.18;6.22;;;20.30;56.50;;;;;;8232013;28;20477;-81
2023/05/21 14:25:10;;;;;;;10.67;6.60;;;20.30;56.50;;;;;;8198378;28;20400;-81
2023/05/21 14:29:11;;;;;;;8.43;5.97;;;20.30;56.60;;;;;;8230312;28;20282;-81
2023/05/21 14:33:12;;;;;;;8.88;6.60;;;20.30;56.60;;;;;;8230466;28;20026;-81
2023/05/21 14:37:12;;;;;;;11.77;6.30;;;20.20;56.60;;;;;;8198108;28;20054;-81
2023/05/21 14:41:13;;;;;;;9.25;6.47;;;20.20;56.60;;;;;;8230254;28;20448;-81
2023/05/21 14:45:14;;;;;;;9.05;5.97;;;20.20;56.60;;;;;;8229873;28;20035;-81
2023/05/21 14:49:14;;;;;;;8.10;5.97;;;20.20;56.70;;;;;;8213717;28;20434;-81
2023/05/21 14:53:15;;;;;;;10.27;6.65;;;20.20;56.70;;;;;;8198002;28;20061;-81
2023/05/21 14:57:16;;;;;;;8.20;5.80;;;20.20;56.70;;;;;;8213371;28;20374;-81
2023/05/21 15:01:17;;;;;;;8.75;6.50;;;20.10;56.70;;;;;;8213496;28;20361;-81
2023/05/21 15:05:18;;;;;;;7.60;5.72;;;20.10;56.70;;;;;;8230539;28;20030;-81
2023/05/21 15:09:18;;;;;;;7.05;5.45;;;20.10;56.70;;;;;;8213594;28;20077;-81
2023/05/21 15:13:20;;;;;;;7.00;5.47;;;20.20;56.70;;;;;;8212969;28;20031;-81
2023/05/21 15:17:20;;;;;;;;;;;20.10;56.70;;;;;;8213441;28;20332;-81
2023/05/21 15:21:21;;;;;;;7.53;5.93;;;20.10;56.70;;;;;;8229932;28;19965;-81
2023/05/21 15:25:22;;;;;;;7.05;5.28;;;20.10;56.70;;;;;;8228978;28;20042;-81
2023/05/21 15:29:22;;;;;;;7.57;5.38;;;20.10;56.80;;;;;;8213137;28;20361;-81
2023/05/21 15:33:23;;;;;;;7.37;6.03;;;20.10;56.80;;;;;;8196811;28;20038;-81
2023/05/21 15:37:24;;;;;;;8.30;5.55;;;20.10;56.80;;;;;;8237621;28;20316;-81
2023/05/21 15:41:26;;;;;;;6.88;5.20;;;20.10;56.80;;;;;;8276950;28;20050;-81
2023/05/21 15:45:27;;;;;;;7.33;5.27;;;20.10;56.80;;;;;;8276546;28;20033;-81
2023/05/21 15:49:28;;;;;;;7.85;5.20;;;20.10;56.80;;;;;;8276817;28;20284;-81
2023/05/21 15:53:28;;;;;;;6.05;4.65;;;20.10;56.80;;;;;;8260728;28;20487;-81
2023/05/21 15:57:29;;;;;;;7.22;4.88;;;20.10;56.80;;;;;;8260497;28;20042;-81
2023/05/21 16:01:30;;;;;;;6.47;5.03;;;20.10;56.80;;;;;;8260266;28;20038;-81
2023/05/21 16:05:31;;;;;;;7.15;5.10;;;20.00;56.80;;;;;;8276392;28;20025;-81
2023/05/21 16:09:31;;;;;;;6.75;4.97;;;20.00;56.80;;;;;;8260175;28;20038;-81
2023/05/21 16:13:32;;;;;;;7.47;4.88;;;20.10;56.80;;;;;;8260122;28;20476;-80
2023/05/21 16:17:33;;;;;;;6.70;4.65;;;20.10;56.80;;;;;;8260986;28;20064;-81
2023/05/21 16:21:33;;;;;;;6.22;4.72;;;20.00;56.80;;;;;;8279454;28;20038;-83
2023/05/21 16:25:34;;;;;;;6.63;5.05;;;20.10;56.80;;;;;;8228111;28;20037;-81
2023/05/21 16:29:35;;;;;;;6.30;4.72;;;20.10;56.80;;;;;;8260515;28;20042;-82
2023/05/21 16:33:35;;;;;;;7.40;5.50;;;20.10;56.80;;;;;;8245361;28;20054;-82
2023/05/21 16:37:36;;;;;;;6.25;5.10;;;20.10;56.80;;;;;;8196345;29;20055;-81
2023/05/21 16:41:37;;;;;;;7.00;5.25;;;20.10;56.80;;;;;;8170340;29;20544;-81
2023/05/21 16:45:43;;;;;;;7.10;4.78;;;20.10;56.80;;;;;;8202028;29;20445;-81
2023/05/21 16:49:43;;;;;;;6.78;4.82;;;20.10;56.80;;;;;;8201755;28;20031;-81
2023/05/21 16:53:44;;;;;;;7.43;4.83;;;20.10;56.80;;;;;;8218139;28;20047;-81
2023/05/21 16:57:45;;;;;;;6.65;4.75;;;20.00;56.80;;;;;;8217296;28;20784;-81
2023/05/21 17:01:45;;;;;;;7.18;4.65;;;20.10;56.80;;;;;;8233565;28;20564;-82
2023/05/21 17:05:46;;;;;;;6.38;5.15;;;20.10;57.40;;;;;;8216635;28;20035;-81
2023/05/21 17:09:46;;;;;;;5.95;4.40;;;20.10;56.90;;;;;;8217164;28;20489;-81
2023/05/21 17:13:47;;;;;;;7.18;4.88;;;20.10;56.90;;;;;;8217937;28;20094;-80
2023/05/21 17:17:48;;;;;;;6.22;4.45;;;20.10;56.90;;;;;;8203052;28;20129;-81
2023/05/21 17:21:49;;;;;;;5.50;4.50;;;20.10;56.90;;;;;;8219570;28;20039;-81
2023/05/21 17:25:51;;;;;;;6.15;4.70;;;20.10;56.90;;;;;;8243813;28;20034;-82
2023/05/21 17:29:51;;;;;;;6.85;4.80;;;20.10;56.80;;;;;;8275178;28;20027;-81
2023/05/21 17:33:54;;;;;;;5.97;4.72;;;20.10;56.90;;;;;;8275966;28;20054;-81
2023/05/21 17:37:55;;;;;;;6.13;4.95;;;20.00;56.80;;;;;;8275178;28;20419;-82
2023/05/21 17:41:56;;;;;;;6.57;4.97;;;20.10;56.90;;;;;;8259401;28;20038;-82
2023/05/21 17:45:57;;;;;;;5.07;4.15;;;20.10;56.90;;;;;;8257623;28;20027;-82
2023/05/21 17:49:58;;;;;;;5.07;4.00;;;20.10;56.90;;;;;;8274997;28;20041;-82
2023/05/21 17:53:58;;;;;;;5.47;4.60;;;20.00;56.80;;;;;;8219452;28;20038;-82
2023/05/21 17:57:59;;;;;;;5.90;4.32;;;20.10;56.90;;;;;;8200684;29;20031;-82
2023/05/21 18:02:00;;;;;;;5.47;4.15;;;20.10;56.90;;;;;;8184230;29;20046;-82
2023/05/21 18:06:01;;;;;;;6.63;4.20;;;20.10;56.90;;;;;;8201041;29;20114;-82
2023/05/21 18:10:01;;;;;;;5.78;4.53;;;20.10;56.90;;;;;;8199825;29;20035;-82
2023/05/21 18:14:02;;;;;;;5.65;4.43;;;20.10;56.90;;;;;;8183301;29;20079;-82
2023/05/21 18:18:03;;;;;;;5.30;4.40;;;20.10;56.90;;;;;;8199034;29;20095;-82
2023/05/21 18:22:04;;;;;;;6.13;4.30;;;20.10;56.80;;;;;;8185757;28;20611;-82
2023/05/21 18:26:05;;;;;;;4.82;4.03;;;20.10;56.80;;;;;;8231981;28;20118;-82
2023/05/21 18:30:07;;;;;;;4.70;3.55;;;20.10;57.10;;;;;;8231756;28;20440;-82
2023/05/21 18:34:07;;;;;;;5.95;4.10;;;20.00;56.80;;;;;;8231528;28;20510;-82
2023/05/21 18:38:08;;;;;;;4.60;3.70;;;20.00;56.80;;;;;;8213918;28;20054;-82
2023/05/21 18:42:09;;;;;;;5.65;4.65;;;20.00;56.80;;;;;;8198279;28;20039;-82
2023/05/21 18:46:10;;;;;;;5.35;3.95;;;20.00;56.90;;;;;;8197789;28;20054;-82
2023/05/21 18:50:12;;;;;;;5.68;4.13;;;20.00;56.90;;;;;;8230295;28;20031;-82
2023/05/21 18:54:13;;;;;;;4.60;3.70;;;20.00;56.90;;;;;;8197998;28;20325;-82
2023/05/21 18:58:14;;;;;;;4.40;3.75;;;20.10;56.90;;;;;;8197128;28;20388;-82
2023/05/21 19:02:15;;;;;;;5.00;3.72;;;20.10;56.90;;;;;;8198984;29;20594;-82
2023/05/21 19:06:15;;;;;;;4.72;3.67;;;20.10;56.90;;;;;;8181882;29;20098;-82
2023/05/21 19:10:16;;;;;;;4.15;3.75;;;20.10;56.90;;;;;;8196906;29;20036;-82
2023/05/21 19:14:19;;;;;;;5.55;4.25;;;20.10;56.90;;;;;;8197353;29;20101;-82
2023/05/21 19:18:19;;;;;;;4.13;3.30;;;20.10;56.90;;;;;;8197231;29;20058;-82
2023/05/21 19:22:24;;;;;;;5.63;4.25;;;20.10;56.90;;;;;;8185284;28;20038;-82
2023/05/21 19:26:25;;;;;;;4.82;3.72;;;20.10;56.90;;;;;;8213353;28;20031;-82
2023/05/21 19:30:26;;;;;;;4.78;3.78;;;20.10;56.90;;;;;;8196816;28;20038;-82
2023/05/21 19:34:27;;;;;;;5.05;4.10;;;20.00;56.90;;;;;;8228952;28;20188;-82
2023/05/21 19:38:27;;;;;;;4.65;3.83;;;20.10;56.90;;;;;;8229733;28;20051;-82
2023/05/21 19:42:28;;;;;;;5.17;3.70;;;20.00;56.80;;;;;;8228560;28;20085;-82
2023/05/21 19:46:30;;;;;;;5.20;3.97;;;20.10;56.90;;;;;;8228795;28;20819;-82
2023/05/21 19:50:30;;;;;;;4.70;4.00;;;20.00;56.80;;;;;;8228750;28;20336;-82
2023/05/21 19:54:31;;;;;;;5.07;4.00;;;20.00;56.80;;;;;;8229260;28;20043;-82
2023/05/21 19:58:32;;;;;;;4.70;3.77;;;20.00;56.80;;;;;;8229460;28;20830;-82
2023/05/21 20:02:33;;;;;;;4.47;3.58;;;20.00;56.80;;;;;;8196550;28;20298;-82
2023/05/21 20:06:34;;;;;;;4.95;3.83;;;20.10;56.80;;;;;;8212177;28;20093;-82
2023/05/21 20:10:35;;;;;;;;;;;20.00;56.80;;;;;;8235792;28;20027;-81
2023/05/21 20:14:35;;;;;;;4.23;3.20;;;20.00;56.80;;;;;;8235913;28;19913;-82
2023/05/21 20:18:36;;;;;;;5.43;3.75;;;20.00;56.80;;;;;;8218689;28;20046;-82
2023/05/21 20:22:37;;;;;;;4.88;3.78;;;20.00;56.90;;;;;;8234497;28;20066;-82
2023/05/21 20:26:38;;;;;;;4.50;3.50;;;20.00;56.90;;;;;;8234300;28;20035;-82
2023/05/21 20:30:58;;;;;;;4.15;3.30;;;20.00;57.00;;;;;;8202376;28;20042;-82
2023/05/21 20:34:59;;;;;;;3.90;3.25;;;20.00;56.90;;;;;;8233884;28;20616;-82
2023/05/21 20:39:00;;;;;;;3.72;3.33;;;20.00;57.00;;;;;;8235712;28;20366;-82
2023/05/21 20:43:01;;;;;;;4.60;3.72;;;20.00;56.90;;;;;;8233910;28;20501;-82
2023/05/21 20:47:03;;;;;;;4.10;3.47;;;20.00;56.90;;;;;;8201488;28;20455;-82
2023/05/21 20:51:04;;;;;;;4.03;3.22;;;20.00;56.90;;;;;;8218007;28;20041;-82
2023/05/21 20:55:05;;;;;;;3.70;3.28;;;20.00;56.90;;;;;;8217573;28;20035;-82
2023/05/21 20:59:06;;;;;;;4.43;3.30;;;20.00;56.90;;;;;;8201225;29;20485;-82